sensor_id;sensor_type;location;lat;lon;timestamp;pressure;altitude;pressure_sealevel;temperature;humidity
75627;BME280;67372;49.404;11.034;2024-02-14T00:00:44;98623.44;;;1.94;87.06
75627;BME280;67372;49.404;11.034;2024-02-14T00:03:10;98622.75;;;1.92;86.91
75627;BME280;67372;49.404;11.034;2024-02-14T00:05:37;98617.78;;;1.89;86.92
75627;BME280;67372;49.404;11.034;2024-02-14T00:08:04;98623.19;;;1.88;88.16
75627;BME280;67372;49.404;11.034;2024-02-14T00:10:30;98621.69;;;1.85;87.86
75627;BME280;67372;49.404;11.034;2024-02-14T00:12:57;98621.16;;;1.81;87.83
75627;BME280;67372;49.404;11.034;2024-02-14T00:15:23;98614.09;;;1.82;87.71
75627;BME280;67372;49.404;11.034;2024-02-14T00:17:50;98611.47;;;1.82;88.50
75627;BME280;67372;49.404;11.034;2024-02-14T00:20:16;98614.88;;;1.74;89.43
75627;BME280;67372;49.404;11.034;2024-02-14T00:22:42;98619.31;;;1.74;88.42
75627;BME280;67372;49.404;11.034;2024-02-14T00:25:09;98613.38;;;1.72;88.41
75627;BME280;67372;49.404;11.034;2024-02-14T00:27:35;98616.16;;;1.70;88.24
75627;BME280;67372;49.404;11.034;2024-02-14T00:30:02;98612.03;;;1.68;89.35
75627;BME280;67372;49.404;11.034;2024-02-14T00:32:29;98611.91;;;1.60;90.34
75627;BME280;67372;49.404;11.034;2024-02-14T00:34:55;98608.25;;;1.52;90.47
75627;BME280;67372;49.404;11.034;2024-02-14T00:37:22;98619.34;;;1.46;90.89
75627;BME280;67372;49.404;11.034;2024-02-14T00:39:48;98621.84;;;1.48;89.91
75627;BME280;67372;49.404;11.034;2024-02-14T00:42:15;98620.84;;;1.49;89.94
75627;BME280;67372;49.404;11.034;2024-02-14T00:44:41;98621.22;;;1.54;88.80
75627;BME280;67372;49.404;11.034;2024-02-14T00:47:08;98620.09;;;1.57;89.50
75627;BME280;67372;49.404;11.034;2024-02-14T00:49:34;98620.94;;;1.57;88.96
75627;BME280;67372;49.404;11.034;2024-02-14T00:52:02;98615.69;;;1.57;89.56
75627;BME280;67372;49.404;11.034;2024-02-14T00:54:28;98624.09;;;1.61;89.32
75627;BME280;67372;49.404;11.034;2024-02-14T00:56:54;98630.31;;;1.60;89.64
75627;BME280;67372;49.404;11.034;2024-02-14T00:59:21;98626.03;;;1.59;89.33
75627;BME280;67372;49.404;11.034;2024-02-14T01:01:47;98627.69;;;1.60;89.56
75627;BME280;67372;49.404;11.034;2024-02-14T01:04:13;98617.47;;;1.57;89.91
75627;BME280;67372;49.404;11.034;2024-02-14T01:06:40;98620.94;;;1.57;89.03
75627;BME280;67372;49.404;11.034;2024-02-14T01:09:06;98623.72;;;1.56;89.98
75627;BME280;67372;49.404;11.034;2024-02-14T01:11:33;98623.88;;;1.54;88.87
75627;BME280;67372;49.404;11.034;2024-02-14T01:13:59;98629.78;;;1.56;88.69
75627;BME280;67372;49.404;11.034;2024-02-14T01:16:25;98628.66;;;1.59;88.87
75627;BME280;67372;49.404;11.034;2024-02-14T01:18:52;98622.59;;;1.58;90.05
75627;BME280;67372;49.404;11.034;2024-02-14T01:21:18;98636.03;;;1.55;90.40
75627;BME280;67372;49.404;11.034;2024-02-14T01:23:45;98622.75;;;1.57;90.12
75627;BME280;67372;49.404;11.034;2024-02-14T01:26:11;98626.19;;;1.57;90.19
75627;BME280;67372;49.404;11.034;2024-02-14T01:28:38;98624.91;;;1.61;89.56
75627;BME280;67372;49.404;11.034;2024-02-14T01:31:04;98627.94;;;1.66;89.25
75627;BME280;67372;49.404;11.034;2024-02-14T01:33:30;98617.94;;;1.70;89.10
75627;BME280;67372;49.404;11.034;2024-02-14T01:35:57;98629.00;;;1.73;88.79
75627;BME280;67372;49.404;11.034;2024-02-14T01:38:24;98629.81;;;1.74;89.20
75627;BME280;67372;49.404;11.034;2024-02-14T01:40:50;98636.88;;;1.73;90.41
75627;BME280;67372;49.404;11.034;2024-02-14T01:43:17;98627.19;;;1.74;89.34
75627;BME280;67372;49.404;11.034;2024-02-14T01:45:43;98626.88;;;1.77;89.12
75627;BME280;67372;49.404;11.034;2024-02-14T01:48:09;98619.66;;;1.79;89.13
75627;BME280;67372;49.404;11.034;2024-02-14T01:50:36;98613.59;;;1.78;89.33
75627;BME280;67372;49.404;11.034;2024-02-14T01:53:03;98618.53;;;1.81;88.39
75627;BME280;67372;49.404;11.034;2024-02-14T01:55:31;98617.25;;;1.85;88.30
75627;BME280;67372;49.404;11.034;2024-02-14T01:57:57;98613.50;;;1.88;87.98
75627;BME280;67372;49.404;11.034;2024-02-14T02:00:24;98612.16;;;1.84;89.23
75627;BME280;67372;49.404;11.034;2024-02-14T02:02:51;98608.84;;;1.82;88.70
75627;BME280;67372;49.404;11.034;2024-02-14T02:05:18;98605.22;;;1.83;88.48
75627;BME280;67372;49.404;11.034;2024-02-14T02:07:44;98606.38;;;1.80;89.19
75627;BME280;67372;49.404;11.034;2024-02-14T02:10:11;98592.69;;;1.77;89.49
75627;BME280;67372;49.404;11.034;2024-02-14T02:12:37;98594.81;;;1.73;89.11
75627;BME280;67372;49.404;11.034;2024-02-14T02:15:08;98593.00;;;1.74;89.59
75627;BME280;67372;49.404;11.034;2024-02-14T02:17:34;98593.84;;;1.74;89.40
75627;BME280;67372;49.404;11.034;2024-02-14T02:20:01;98588.25;;;1.77;89.28
75627;BME280;67372;49.404;11.034;2024-02-14T02:22:28;98594.19;;;1.79;89.01
75627;BME280;67372;49.404;11.034;2024-02-14T02:24:55;98588.13;;;1.79;89.91
75627;BME280;67372;49.404;11.034;2024-02-14T02:27:21;98585.63;;;1.77;90.35
75627;BME280;67372;49.404;11.034;2024-02-14T02:29:47;98587.28;;;1.78;90.07
75627;BME280;67372;49.404;11.034;2024-02-14T02:32:14;98593.22;;;1.80;89.50
75627;BME280;67372;49.404;11.034;2024-02-14T02:34:40;98593.88;;;1.82;90.17
75627;BME280;67372;49.404;11.034;2024-02-14T02:37:07;98587.97;;;1.80;90.03
75627;BME280;67372;49.404;11.034;2024-02-14T02:39:33;98583.38;;;1.82;90.17
75627;BME280;67372;49.404;11.034;2024-02-14T02:41:59;98582.53;;;1.82;89.93
75627;BME280;67372;49.404;11.034;2024-02-14T02:44:26;98582.53;;;1.82;89.87
75627;BME280;67372;49.404;11.034;2024-02-14T02:46:52;98578.78;;;1.84;89.74
75627;BME280;67372;49.404;11.034;2024-02-14T02:49:18;98584.56;;;1.88;89.21
75627;BME280;67372;49.404;11.034;2024-02-14T02:51:45;98582.03;;;1.96;88.95
75627;BME280;67372;49.404;11.034;2024-02-14T02:54:11;98587.34;;;2.04;88.23
75627;BME280;67372;49.404;11.034;2024-02-14T02:56:38;98579.50;;;2.12;88.06
75627;BME280;67372;49.404;11.034;2024-02-14T02:59:04;98572.97;;;2.17;87.97
75627;BME280;67372;49.404;11.034;2024-02-14T03:01:37;98584.09;;;2.10;88.09
75627;BME280;67372;49.404;11.034;2024-02-14T03:04:03;98578.16;;;2.08;88.26
75627;BME280;67372;49.404;11.034;2024-02-14T03:06:30;98576.19;;;2.10;87.98
75627;BME280;67372;49.404;11.034;2024-02-14T03:08:57;98583.09;;;2.11;88.16
75627;BME280;67372;49.404;11.034;2024-02-14T03:11:23;98580.19;;;2.14;87.53
75627;BME280;67372;49.404;11.034;2024-02-14T03:13:50;98583.66;;;2.15;87.94
75627;BME280;67372;49.404;11.034;2024-02-14T03:16:16;98578.97;;;2.09;87.83
75627;BME280;67372;49.404;11.034;2024-02-14T03:18:45;98581.44;;;2.10;87.72
75627;BME280;67372;49.404;11.034;2024-02-14T03:21:12;98579.81;;;2.09;88.41
75627;BME280;67372;49.404;11.034;2024-02-14T03:23:38;98578.31;;;2.07;88.20
75627;BME280;67372;49.404;11.034;2024-02-14T03:26:05;98578.47;;;2.05;88.10
75627;BME280;67372;49.404;11.034;2024-02-14T03:28:31;98571.03;;;2.01;88.01
75627;BME280;67372;49.404;11.034;2024-02-14T03:30:58;98573.31;;;1.96;88.34
75627;BME280;67372;49.404;11.034;2024-02-14T03:33:24;98569.47;;;1.90;88.19
75627;BME280;67372;49.404;11.034;2024-02-14T03:35:50;98570.06;;;1.84;88.35
75627;BME280;67372;49.404;11.034;2024-02-14T03:38:27;98569.56;;;1.80;88.35
75627;BME280;67372;49.404;11.034;2024-02-14T03:40:54;98560.31;;;1.76;88.25
75627;BME280;67372;49.404;11.034;2024-02-14T03:43:20;98571.00;;;1.75;88.19
75627;BME280;67372;49.404;11.034;2024-02-14T03:45:46;98568.50;;;1.73;87.60
75627;BME280;67372;49.404;11.034;2024-02-14T03:48:13;98575.72;;;1.71;87.72
75627;BME280;67372;49.404;11.034;2024-02-14T03:50:39;98574.81;;;1.63;88.79
75627;BME280;67372;49.404;11.034;2024-02-14T03:53:06;98577.38;;;1.54;89.14
75627;BME280;67372;49.404;11.034;2024-02-14T03:55:32;98578.13;;;1.47;89.64
75627;BME280;67372;49.404;11.034;2024-02-14T03:57:58;98584.78;;;1.41;89.43
75627;BME280;67372;49.404;11.034;2024-02-14T04:00:25;98584.72;;;1.33;89.94
75627;BME280;67372;49.404;11.034;2024-02-14T04:02:51;98586.28;;;1.26;91.10
75627;BME280;67372;49.404;11.034;2024-02-14T04:05:18;98586.59;;;1.23;91.79
75627;BME280;67372;49.404;11.034;2024-02-14T04:07:44;98590.03;;;1.23;91.55
75627;BME280;67372;49.404;11.034;2024-02-14T04:10:11;98590.19;;;1.22;91.52
75627;BME280;67372;49.404;11.034;2024-02-14T04:12:37;98581.47;;;1.21;91.90
75627;BME280;67372;49.404;11.034;2024-02-14T04:15:03;98579.69;;;1.22;91.53
75627;BME280;67372;49.404;11.034;2024-02-14T04:17:30;98583.81;;;1.25;91.75
75627;BME280;67372;49.404;11.034;2024-02-14T04:19:57;98578.41;;;1.26;91.89
75627;BME280;67372;49.404;11.034;2024-02-14T04:22:23;98575.47;;;1.29;91.68
75627;BME280;67372;49.404;11.034;2024-02-14T04:24:49;98571.03;;;1.30;92.64
75627;BME280;67372;49.404;11.034;2024-02-14T04:27:16;98567.16;;;1.34;92.46
75627;BME280;67372;49.404;11.034;2024-02-14T04:29:47;98574.41;;;1.40;92.02
75627;BME280;67372;49.404;11.034;2024-02-14T04:32:13;98570.91;;;1.49;92.01
75627;BME280;67372;49.404;11.034;2024-02-14T04:34:40;98573.78;;;1.56;91.88
75627;BME280;67372;49.404;11.034;2024-02-14T04:37:07;98578.00;;;1.66;91.31
75627;BME280;67372;49.404;11.034;2024-02-14T04:39:33;98578.25;;;1.81;90.93
75627;BME280;67372;49.404;11.034;2024-02-14T04:41:59;98574.44;;;1.93;90.63
75627;BME280;67372;49.404;11.034;2024-02-14T04:44:28;98573.88;;;2.07;89.71
75627;BME280;67372;49.404;11.034;2024-02-14T04:46:55;98576.13;;;2.20;88.77
75627;BME280;67372;49.404;11.034;2024-02-14T04:49:21;98581.94;;;2.32;88.72
75627;BME280;67372;49.404;11.034;2024-02-14T04:51:48;98585.47;;;2.40;87.97
75627;BME280;67372;49.404;11.034;2024-02-14T04:54:14;98586.19;;;2.51;87.98
75627;BME280;67372;49.404;11.034;2024-02-14T04:56:41;98587.84;;;2.60;86.96
75627;BME280;67372;49.404;11.034;2024-02-14T04:59:07;98585.22;;;2.60;87.13
75627;BME280;67372;49.404;11.034;2024-02-14T05:01:33;98595.47;;;2.63;87.58
75627;BME280;67372;49.404;11.034;2024-02-14T05:04:00;98595.66;;;2.69;86.82
75627;BME280;67372;49.404;11.034;2024-02-14T05:06:26;98599.47;;;2.75;86.70
75627;BME280;67372;49.404;11.034;2024-02-14T05:08:53;98602.00;;;2.85;86.61
75627;BME280;67372;49.404;11.034;2024-02-14T05:11:19;98595.94;;;2.92;86.39
75627;BME280;67372;49.404;11.034;2024-02-14T05:13:46;98596.78;;;3.01;86.29
75627;BME280;67372;49.404;11.034;2024-02-14T05:16:12;98584.78;;;3.06;86.33
75627;BME280;67372;49.404;11.034;2024-02-14T05:18:38;98590.59;;;3.10;86.01
75627;BME280;67372;49.404;11.034;2024-02-14T05:21:06;98599.00;;;3.14;85.59
75627;BME280;67372;49.404;11.034;2024-02-14T05:23:33;98601.97;;;3.19;86.16
75627;BME280;67372;49.404;11.034;2024-02-14T05:26:00;98604.94;;;3.24;85.59
75627;BME280;67372;49.404;11.034;2024-02-14T05:28:26;98607.25;;;3.27;85.34
75627;BME280;67372;49.404;11.034;2024-02-14T05:30:52;98607.63;;;3.32;85.61
75627;BME280;67372;49.404;11.034;2024-02-14T05:33:19;98606.00;;;3.39;84.71
75627;BME280;67372;49.404;11.034;2024-02-14T05:35:45;98602.72;;;3.45;84.68
75627;BME280;67372;49.404;11.034;2024-02-14T05:38:12;98610.78;;;3.52;84.52
75627;BME280;67372;49.404;11.034;2024-02-14T05:40:39;98608.97;;;3.52;84.14
75627;BME280;67372;49.404;11.034;2024-02-14T05:43:06;98605.69;;;3.50;85.21
75627;BME280;67372;49.404;11.034;2024-02-14T05:45:32;98608.31;;;3.50;84.69
75627;BME280;67372;49.404;11.034;2024-02-14T05:47:59;98605.34;;;3.45;84.31
75627;BME280;67372;49.404;11.034;2024-02-14T05:50:26;98598.44;;;3.44;85.01
75627;BME280;67372;49.404;11.034;2024-02-14T05:52:52;98616.22;;;3.50;84.18
75627;BME280;67372;49.404;11.034;2024-02-14T05:55:18;98608.16;;;3.52;84.76
75627;BME280;67372;49.404;11.034;2024-02-14T05:57:45;98609.63;;;3.54;84.72
75627;BME280;67372;49.404;11.034;2024-02-14T06:00:12;98605.88;;;3.57;84.35
75627;BME280;67372;49.404;11.034;2024-02-14T06:02:38;98607.84;;;3.55;84.55
75627;BME280;67372;49.404;11.034;2024-02-14T06:05:06;98606.06;;;3.55;84.98
75627;BME280;67372;49.404;11.034;2024-02-14T06:07:32;98611.31;;;3.55;84.81
75627;BME280;67372;49.404;11.034;2024-02-14T06:09:59;98613.97;;;3.55;85.16
75627;BME280;67372;49.404;11.034;2024-02-14T06:12:25;98620.72;;;3.58;84.25
75627;BME280;67372;49.404;11.034;2024-02-14T06:14:51;98620.56;;;3.59;84.91
75627;BME280;67372;49.404;11.034;2024-02-14T06:17:18;98621.38;;;3.68;84.74
75627;BME280;67372;49.404;11.034;2024-02-14T06:19:44;98622.72;;;3.72;84.82
75627;BME280;67372;49.404;11.034;2024-02-14T06:22:11;98621.56;;;3.75;83.70
75627;BME280;67372;49.404;11.034;2024-02-14T06:24:37;98625.69;;;3.77;84.58
75627;BME280;67372;49.404;11.034;2024-02-14T06:27:04;98623.03;;;3.77;83.41
75627;BME280;67372;49.404;11.034;2024-02-14T06:29:30;98635.41;;;3.77;83.53
75627;BME280;67372;49.404;11.034;2024-02-14T06:31:57;98631.31;;;3.82;83.98
75627;BME280;67372;49.404;11.034;2024-02-14T06:34:23;98627.84;;;3.90;83.69
75627;BME280;67372;49.404;11.034;2024-02-14T06:36:50;98629.84;;;3.96;83.37
75627;BME280;67372;49.404;11.034;2024-02-14T06:39:16;98631.97;;;4.00;83.59
75627;BME280;67372;49.404;11.034;2024-02-14T06:41:42;98629.16;;;4.02;83.66
75627;BME280;67372;49.404;11.034;2024-02-14T06:54:49;98623.25;;;4.08;83.69
75627;BME280;67372;49.404;11.034;2024-02-14T06:57:15;98626.56;;;4.10;83.35
75627;BME280;67372;49.404;11.034;2024-02-14T06:59:42;98619.94;;;4.14;83.54
75627;BME280;67372;49.404;11.034;2024-02-14T07:02:08;98618.31;;;4.13;83.93
75627;BME280;67372;49.404;11.034;2024-02-14T07:04:39;98616.16;;;4.17;83.61
75627;BME280;67372;49.404;11.034;2024-02-14T07:07:05;98623.25;;;4.16;83.63
75627;BME280;67372;49.404;11.034;2024-02-14T07:09:32;98626.38;;;4.20;83.76
75627;BME280;67372;49.404;11.034;2024-02-14T07:11:58;98629.22;;;4.26;83.34
75627;BME280;67372;49.404;11.034;2024-02-14T07:14:25;98629.03;;;4.36;82.43
75627;BME280;67372;49.404;11.034;2024-02-14T07:16:51;98634.13;;;4.46;83.08
75627;BME280;67372;49.404;11.034;2024-02-14T07:19:18;98617.13;;;4.56;83.25
75627;BME280;67372;49.404;11.034;2024-02-14T07:21:44;98614.94;;;4.68;82.14
75627;BME280;67372;49.404;11.034;2024-02-14T07:24:11;98613.94;;;4.77;82.57
75627;BME280;67372;49.404;11.034;2024-02-14T07:26:37;98614.56;;;4.87;82.21
75627;BME280;67372;49.404;11.034;2024-02-14T07:29:04;98602.13;;;4.96;81.17
75627;BME280;67372;49.404;11.034;2024-02-14T07:31:30;98606.09;;;5.00;81.01
75627;BME280;67372;49.404;11.034;2024-02-14T07:44:44;98620.28;;;5.46;80.46
75627;BME280;67372;49.404;11.034;2024-02-14T07:47:10;98620.41;;;5.53;79.66
75627;BME280;67372;49.404;11.034;2024-02-14T07:49:37;98620.34;;;5.61;79.66
75627;BME280;67372;49.404;11.034;2024-02-14T07:52:03;98621.81;;;5.72;79.01
75627;BME280;67372;49.404;11.034;2024-02-14T07:54:30;98626.28;;;5.71;77.73
75627;BME280;67372;49.404;11.034;2024-02-14T08:02:20;98637.50;;;6.04;77.98
75627;BME280;67372;49.404;11.034;2024-02-14T08:04:46;98639.38;;;6.19;78.84
75627;BME280;67372;49.404;11.034;2024-02-14T08:07:14;98631.34;;;6.27;78.25
75627;BME280;67372;49.404;11.034;2024-02-14T08:09:41;98629.63;;;6.34;78.19
75627;BME280;67372;49.404;11.034;2024-02-14T08:12:09;98636.91;;;6.40;76.66
75627;BME280;67372;49.404;11.034;2024-02-14T08:14:35;98638.53;;;6.41;76.66
75627;BME280;67372;49.404;11.034;2024-02-14T08:17:02;98641.66;;;6.44;76.57
75627;BME280;67372;49.404;11.034;2024-02-14T08:19:28;98641.84;;;6.43;76.78
75627;BME280;67372;49.404;11.034;2024-02-14T08:21:55;98643.41;;;6.52;76.72
75627;BME280;67372;49.404;11.034;2024-02-14T08:24:21;98646.59;;;6.47;75.94
75627;BME280;67372;49.404;11.034;2024-02-14T08:26:48;98641.94;;;6.50;76.74
75627;BME280;67372;49.404;11.034;2024-02-14T08:29:14;98647.88;;;6.52;76.27
75627;BME280;67372;49.404;11.034;2024-02-14T08:31:40;98649.97;;;6.56;76.01
75627;BME280;67372;49.404;11.034;2024-02-14T08:34:07;98651.06;;;6.62;75.29
75627;BME280;67372;49.404;11.034;2024-02-14T08:36:33;98657.16;;;6.70;76.11
75627;BME280;67372;49.404;11.034;2024-02-14T08:39:00;98661.53;;;6.78;75.70
75627;BME280;67372;49.404;11.034;2024-02-14T08:41:26;98652.53;;;6.87;76.35
75627;BME280;67372;49.404;11.034;2024-02-14T08:43:53;98649.50;;;6.90;75.72
75627;BME280;67372;49.404;11.034;2024-02-14T08:46:19;98651.31;;;6.90;75.88
75627;BME280;67372;49.404;11.034;2024-02-14T08:48:45;98639.41;;;6.86;76.08
75627;BME280;67372;49.404;11.034;2024-02-14T08:51:15;98640.16;;;6.94;76.91
75627;BME280;67372;49.404;11.034;2024-02-14T08:53:42;98644.38;;;7.03;76.39
75627;BME280;67372;49.404;11.034;2024-02-14T08:56:08;98645.66;;;7.07;76.55
75627;BME280;67372;49.404;11.034;2024-02-14T08:58:34;98647.66;;;7.20;76.63
75627;BME280;67372;49.404;11.034;2024-02-14T09:01:01;98646.94;;;7.26;75.81
75627;BME280;67372;49.404;11.034;2024-02-14T09:03:39;98652.16;;;7.34;75.65
75627;BME280;67372;49.404;11.034;2024-02-14T09:06:06;98645.22;;;7.33;74.73
75627;BME280;67372;49.404;11.034;2024-02-14T09:08:32;98642.25;;;7.43;75.17
75627;BME280;67372;49.404;11.034;2024-02-14T09:10:59;98644.34;;;7.48;75.18
75627;BME280;67372;49.404;11.034;2024-02-14T09:13:26;98643.16;;;7.50;74.62
75627;BME280;67372;49.404;11.034;2024-02-14T09:15:52;98636.25;;;7.56;74.79
75627;BME280;67372;49.404;11.034;2024-02-14T09:18:19;98640.22;;;7.60;74.57
75627;BME280;67372;49.404;11.034;2024-02-14T09:20:45;98637.25;;;7.69;73.91
75627;BME280;67372;49.404;11.034;2024-02-14T09:23:13;98642.44;;;7.78;74.39
75627;BME280;67372;49.404;11.034;2024-02-14T09:25:39;98640.41;;;7.80;73.51
75627;BME280;67372;49.404;11.034;2024-02-14T09:28:06;98644.38;;;7.84;73.17
75627;BME280;67372;49.404;11.034;2024-02-14T09:30:32;98636.03;;;7.87;74.35
75627;BME280;67372;49.404;11.034;2024-02-14T09:33:04;98642.28;;;8.00;74.05
75627;BME280;67372;49.404;11.034;2024-02-14T09:35:31;98631.81;;;8.14;74.10
75627;BME280;67372;49.404;11.034;2024-02-14T09:37:57;98626.97;;;8.24;71.92
75627;BME280;67372;49.404;11.034;2024-02-14T09:40:23;98631.91;;;8.27;72.26
75627;BME280;67372;49.404;11.034;2024-02-14T09:42:53;98638.31;;;8.32;72.33
75627;BME280;67372;49.404;11.034;2024-02-14T09:45:22;98634.16;;;8.45;73.17
75627;BME280;67372;49.404;11.034;2024-02-14T09:47:52;98638.56;;;8.59;72.77
75627;BME280;67372;49.404;11.034;2024-02-14T09:50:20;98639.88;;;8.70;72.21
75627;BME280;67372;49.404;11.034;2024-02-14T09:52:49;98632.78;;;8.77;70.79
75627;BME280;67372;49.404;11.034;2024-02-14T09:55:16;98638.13;;;8.83;71.03
75627;BME280;67372;49.404;11.034;2024-02-14T09:57:43;98643.50;;;8.90;71.50
75627;BME280;67372;49.404;11.034;2024-02-14T10:00:10;98638.25;;;9.03;71.90
75627;BME280;67372;49.404;11.034;2024-02-14T10:02:38;98652.03;;;9.13;70.71
75627;BME280;67372;49.404;11.034;2024-02-14T10:05:04;98649.06;;;9.30;71.12
75627;BME280;67372;49.404;11.034;2024-02-14T10:07:42;98649.50;;;9.40;70.14
75627;BME280;67372;49.404;11.034;2024-02-14T10:10:10;98655.88;;;9.45;69.53
75627;BME280;67372;49.404;11.034;2024-02-14T10:12:36;98651.34;;;9.39;68.21
75627;BME280;67372;49.404;11.034;2024-02-14T10:15:03;98661.03;;;9.47;69.07
75627;BME280;67372;49.404;11.034;2024-02-14T10:17:30;98657.19;;;9.63;68.91
75627;BME280;67372;49.404;11.034;2024-02-14T10:20:00;98650.25;;;9.68;68.79
75627;BME280;67372;49.404;11.034;2024-02-14T10:22:34;98652.94;;;9.75;66.57
75627;BME280;67372;49.404;11.034;2024-02-14T10:25:01;98653.78;;;9.89;68.48
75627;BME280;67372;49.404;11.034;2024-02-14T10:27:27;98649.34;;;10.02;67.38
75627;BME280;67372;49.404;11.034;2024-02-14T10:29:56;98648.94;;;10.05;67.46
75627;BME280;67372;49.404;11.034;2024-02-14T10:32:22;98647.94;;;10.20;66.95
75627;BME280;67372;49.404;11.034;2024-02-14T10:34:49;98648.78;;;10.33;65.91
75627;BME280;67372;49.404;11.034;2024-02-14T10:37:17;98646.78;;;10.42;65.76
75627;BME280;67372;49.404;11.034;2024-02-14T10:39:46;98646.34;;;10.52;66.63
75627;BME280;67372;49.404;11.034;2024-02-14T10:44:46;98639.59;;;10.89;66.41
75627;BME280;67372;49.404;11.034;2024-02-14T10:47:14;98639.75;;;11.14;65.32
75627;BME280;67372;49.404;11.034;2024-02-14T10:49:42;98641.72;;;11.31;63.93
75627;BME280;67372;49.404;11.034;2024-02-14T10:52:10;98640.66;;;11.46;64.88
75627;BME280;67372;49.404;11.034;2024-02-14T10:54:37;98639.63;;;11.47;62.87
75627;BME280;67372;49.404;11.034;2024-02-14T10:57:06;98636.75;;;11.48;64.37
75627;BME280;67372;49.404;11.034;2024-02-14T10:59:34;98639.38;;;11.61;64.40
75627;BME280;67372;49.404;11.034;2024-02-14T11:02:02;98637.50;;;11.68;63.31
75627;BME280;67372;49.404;11.034;2024-02-14T11:04:28;98643.47;;;11.57;60.34
75627;BME280;67372;49.404;11.034;2024-02-14T11:06:55;98634.25;;;11.60;62.81
75627;BME280;67372;49.404;11.034;2024-02-14T11:09:21;98633.22;;;11.54;62.42
75627;BME280;67372;49.404;11.034;2024-02-14T11:11:48;98638.56;;;11.54;62.77
75627;BME280;67372;49.404;11.034;2024-02-14T11:14:20;98637.31;;;11.63;62.78
75627;BME280;67372;49.404;11.034;2024-02-14T11:16:47;98636.47;;;11.69;61.72
75627;BME280;67372;49.404;11.034;2024-02-14T11:19:13;98643.41;;;11.77;62.98
75627;BME280;67372;49.404;11.034;2024-02-14T11:21:45;98644.19;;;11.91;62.56
75627;BME280;67372;49.404;11.034;2024-02-14T11:24:13;98641.28;;;11.99;60.63
75627;BME280;67372;49.404;11.034;2024-02-14T11:26:51;98636.31;;;12.03;59.83
75627;BME280;67372;49.404;11.034;2024-02-14T11:29:19;98632.66;;;11.97;60.77
75627;BME280;67372;49.404;11.034;2024-02-14T11:31:57;98633.19;;;12.06;60.21
75627;BME280;67372;49.404;11.034;2024-02-14T11:34:24;98631.81;;;11.96;60.23
75627;BME280;67372;49.404;11.034;2024-02-14T11:36:51;98624.63;;;11.97;60.88
75627;BME280;67372;49.404;11.034;2024-02-14T11:39:17;98623.31;;;12.13;61.46
75627;BME280;67372;49.404;11.034;2024-02-14T11:41:44;98612.50;;;12.26;62.06
75627;BME280;67372;49.404;11.034;2024-02-14T11:44:10;98607.50;;;12.36;61.13
75627;BME280;67372;49.404;11.034;2024-02-14T11:46:37;98601.34;;;12.60;60.07
75627;BME280;67372;49.404;11.034;2024-02-14T11:49:05;98606.03;;;12.65;60.96
75627;BME280;67372;49.404;11.034;2024-02-14T11:51:35;98595.25;;;12.72;60.40
75627;BME280;67372;49.404;11.034;2024-02-14T11:54:01;98605.41;;;12.88;60.40
75627;BME280;67372;49.404;11.034;2024-02-14T11:56:28;98609.78;;;12.82;60.43
75627;BME280;67372;49.404;11.034;2024-02-14T11:58:55;98607.56;;;12.79;60.46
75627;BME280;67372;49.404;11.034;2024-02-14T12:01:22;98595.81;;;12.80;61.34
75627;BME280;67372;49.404;11.034;2024-02-14T12:03:48;98600.28;;;13.05;60.94
75627;BME280;67372;49.404;11.034;2024-02-14T12:06:15;98604.03;;;13.22;59.80
75627;BME280;67372;49.404;11.034;2024-02-14T12:08:42;98615.91;;;13.08;60.53
75627;BME280;67372;49.404;11.034;2024-02-14T12:11:09;98612.78;;;13.11;60.20
75627;BME280;67372;49.404;11.034;2024-02-14T12:13:35;98604.44;;;13.01;60.04
75627;BME280;67372;49.404;11.034;2024-02-14T12:16:01;98617.63;;;13.02;60.30
75627;BME280;67372;49.404;11.034;2024-02-14T12:18:28;98610.81;;;13.00;60.37
75627;BME280;67372;49.404;11.034;2024-02-14T12:21:04;98615.97;;;12.83;61.14
75627;BME280;67372;49.404;11.034;2024-02-14T12:23:31;98609.50;;;12.66;62.09
75627;BME280;67372;49.404;11.034;2024-02-14T12:26:01;98606.47;;;12.62;63.05
75627;BME280;67372;49.404;11.034;2024-02-14T12:28:31;98607.44;;;12.68;62.71
75627;BME280;67372;49.404;11.034;2024-02-14T12:30:58;98604.53;;;12.69;62.27
75627;BME280;67372;49.404;11.034;2024-02-14T12:33:25;98611.59;;;12.64;62.97
75627;BME280;67372;49.404;11.034;2024-02-14T12:35:55;98602.69;;;12.45;63.97
75627;BME280;67372;49.404;11.034;2024-02-14T12:38:21;98604.16;;;12.41;64.53
75627;BME280;67372;49.404;11.034;2024-02-14T12:40:48;98612.84;;;12.36;65.26
75627;BME280;67372;49.404;11.034;2024-02-14T12:43:15;98619.63;;;12.39;65.23
75627;BME280;67372;49.404;11.034;2024-02-14T12:45:42;98615.25;;;12.44;65.05
75627;BME280;67372;49.404;11.034;2024-02-14T12:48:10;98617.53;;;12.41;65.39
75627;BME280;67372;49.404;11.034;2024-02-14T12:50:37;98617.31;;;12.42;65.86
75627;BME280;67372;49.404;11.034;2024-02-14T12:53:04;98614.16;;;12.52;65.55
75627;BME280;67372;49.404;11.034;2024-02-14T12:55:31;98607.56;;;12.54;64.77
75627;BME280;67372;49.404;11.034;2024-02-14T12:57:57;98612.84;;;12.61;64.55
75627;BME280;67372;49.404;11.034;2024-02-14T13:00:24;98612.63;;;12.63;64.73
75627;BME280;67372;49.404;11.034;2024-02-14T13:02:51;98611.66;;;12.57;64.86
75627;BME280;67372;49.404;11.034;2024-02-14T13:05:17;98614.38;;;12.50;65.40
75627;BME280;67372;49.404;11.034;2024-02-14T13:07:43;98610.94;;;12.43;65.81
75627;BME280;67372;49.404;11.034;2024-02-14T13:10:10;98623.88;;;12.46;66.02
75627;BME280;67372;49.404;11.034;2024-02-14T13:12:39;98619.25;;;12.60;65.98
75627;BME280;67372;49.404;11.034;2024-02-14T13:15:06;98615.31;;;12.63;66.05
75627;BME280;67372;49.404;11.034;2024-02-14T13:17:33;98606.56;;;12.74;65.39
75627;BME280;67372;49.404;11.034;2024-02-14T13:20:00;98610.00;;;12.81;65.06
75627;BME280;67372;49.404;11.034;2024-02-14T13:22:27;98599.59;;;12.91;64.68
75627;BME280;67372;49.404;11.034;2024-02-14T13:24:53;98605.69;;;12.98;65.20